createdAt,value
2022-08-25T00:03:17.632Z,1018.74
2022-08-25T00:18:20.156Z,1018.80
2022-08-25T00:33:21.814Z,1018.67
2022-08-25T00:48:23.678Z,1018.55
2022-08-25T01:03:25.242Z,1018.60
2022-08-25T01:18:31.171Z,1018.57
2022-08-25T01:33:31.760Z,1018.62
2022-08-25T01:48:33.587Z,1018.59
2022-08-25T02:03:35.758Z,1018.58
2022-08-25T02:18:38.894Z,1018.43
2022-08-25T02:33:39.473Z,1018.41
2022-08-25T02:48:41.328Z,1018.34
2022-08-25T03:03:43.592Z,1018.29
2022-08-25T03:18:45.154Z,1018.12
2022-08-25T03:33:45.289Z,1018.03
2022-08-25T03:48:47.139Z,1017.95
2022-08-25T04:03:47.758Z,1018.12
2022-08-25T04:18:49.588Z,1018.12
2022-08-25T04:33:50.749Z,1018.12
2022-08-25T04:48:52.034Z,1018.17
2022-08-25T05:03:52.954Z,1018.20
2022-08-25T05:18:54.736Z,1018.23
2022-08-25T05:33:55.765Z,1018.20
2022-08-25T05:48:57.633Z,1018.25
2022-08-25T06:03:59.535Z,1018.27
2022-08-25T06:19:01.329Z,1018.31
2022-08-25T06:34:02.161Z,1018.44
2022-08-25T06:49:02.786Z,1018.48
2022-08-25T07:04:06.597Z,1018.48
2022-08-25T07:19:09.428Z,1018.33
2022-08-25T07:34:09.650Z,1018.34
2022-08-25T07:49:17.104Z,1018.38
2022-08-25T08:04:18.432Z,1018.26
2022-08-25T08:19:19.081Z,1018.39
2022-08-25T08:34:24.886Z,1018.22
2022-08-25T08:49:27.869Z,1018.03
2022-08-25T09:04:28.474Z,1018.07
2022-08-25T09:19:28.680Z,1017.85
2022-08-25T09:34:32.161Z,1017.90
2022-08-25T09:49:32.620Z,1017.80
2022-08-25T10:04:32.682Z,1017.70
2022-08-25T10:19:34.685Z,1017.53
2022-08-25T10:34:36.733Z,1017.43
2022-08-25T10:49:37.066Z,1017.15
2022-08-25T11:04:38.761Z,1017.07
2022-08-25T11:19:40.248Z,1016.93
2022-08-25T11:34:43.494Z,1016.89
2022-08-25T11:49:44.388Z,1016.82
2022-08-25T12:04:45.658Z,1016.56
2022-08-25T12:19:46.987Z,1016.36
2022-08-25T12:34:50.862Z,1016.20
2022-08-25T12:49:52.680Z,1016.08
2022-08-25T13:04:53.677Z,1016.06
2022-08-25T13:19:55.118Z,1015.83
2022-08-25T13:34:55.978Z,1015.49
2022-08-25T13:49:59.190Z,1015.45
2022-08-25T14:05:00.757Z,1015.40
2022-08-25T14:20:02.101Z,1015.21
2022-08-25T14:35:10.173Z,1015.11
2022-08-25T14:50:11.049Z,1014.85
2022-08-25T15:05:12.411Z,1014.75
2022-08-25T15:20:13.177Z,1014.59
2022-08-25T15:35:15.823Z,1014.38
2022-08-25T15:50:16.917Z,1014.26
2022-08-25T16:05:20.447Z,1014.25
2022-08-25T16:20:24.638Z,1014.03
2022-08-25T16:35:25.198Z,1013.93
2022-08-25T16:50:25.456Z,1013.77
2022-08-25T17:05:27.351Z,1013.65
2022-08-25T17:20:28.279Z,1013.79
2022-08-25T17:35:29.216Z,1013.79
2022-08-25T17:50:30.791Z,1013.82
2022-08-25T18:05:31.390Z,1013.82
2022-08-25T18:20:33.492Z,1013.99
2022-08-25T18:35:34.365Z,1014.00
2022-08-25T18:50:36.744Z,1014.05
2022-08-25T19:05:37.959Z,1014.03
2022-08-25T19:20:40.453Z,1014.11
2022-08-25T19:35:41.829Z,1014.13
2022-08-25T19:50:43.782Z,1014.20
2022-08-25T20:05:46.091Z,1014.20
2022-08-25T20:20:47.668Z,1014.22
2022-08-25T20:35:50.835Z,1014.21
2022-08-25T20:50:57.743Z,1014.14
2022-08-25T21:05:58.298Z,1014.11
2022-08-25T21:20:59.735Z,1013.99
2022-08-25T21:36:01.346Z,1014.01
2022-08-25T21:51:05.654Z,1013.91
2022-08-25T22:06:08.035Z,1013.95
2022-08-25T22:21:10.843Z,1013.81
2022-08-25T22:36:13.172Z,1013.72
2022-08-25T22:51:12.796Z,1013.65
2022-08-25T23:06:18.650Z,1013.47
2022-08-25T23:21:24.185Z,1013.50
2022-08-25T23:36:26.413Z,1013.36
2022-08-25T23:51:29.195Z,1013.36
